CYMO

Moosonee Airport

Moosonee, Ontario, Canada
METAR CYMO 201214Z AUTO 31013G20KT 9SM -SN FEW012 OVC024 M00/M02 A2939 RMK SLP953
Observed Flight Rules
Oct-20 @ 12:14 UTC (38 minutes ago) Marginal Visual Flight Rules
Wind Visibility Clouds Conditions
310° at 13 knots
 Gusting to 20 knots
9 miles
  • Few at 1,200' AGL
  • Overcast at 2,400' AGL
  • Light Snow
Temperatures Readings
Current 0°C / 32°F
Dewpoint -2°C / 28°F
Humidity 87%
Altimeter 29.39" Hg
Pressure 995.3 hPa
Elevation 10
METAR CYMO 201214Z AUTO 31013G20KT 9SM -SN FEW012 OVC024 M00/M02 A2939 RMK SLP953
Observed Flight Rules
Oct-20 @ 12:14 UTC
(38 minutes ago)
MVFR
Wind Visibility
310° at 13 knots
 Gusting to 20 knots
9 miles
Clouds
  • Few at 1,200' AGL
  • Overcast at 2,400' AGL
Conditions
  • Light Snow
Temperature Dewpoint
0°C / 32°F -2°C / 28°F
Humidity Altimeter Pressure
87% 29.39" Hg 995.3 hPa